sensor_id;sensor_type;location;lat;lon;timestamp;P1;durP1;ratioP1;P2;durP2;ratioP2
70715;SDS011;59053;50.832;12.882;2022-08-19T00:04:17;40.15;;;23.05;;
70715;SDS011;59053;50.832;12.882;2022-08-19T00:21:55;38.50;;;22.00;;
70715;SDS011;59053;50.832;12.882;2022-08-19T00:24:21;43.25;;;23.08;;
70715;SDS011;59053;50.832;12.882;2022-08-19T00:26:47;40.22;;;22.67;;
70715;SDS011;59053;50.832;12.882;2022-08-19T00:29:17;29.70;;;17.00;;
70715;SDS011;59053;50.832;12.882;2022-08-19T00:31:44;37.90;;;21.83;;
70715;SDS011;59053;50.832;12.882;2022-08-19T00:34:12;40.08;;;21.17;;
70715;SDS011;59053;50.832;12.882;2022-08-19T00:36:39;40.72;;;21.90;;
70715;SDS011;59053;50.832;12.882;2022-08-19T00:39:05;41.20;;;22.80;;
70715;SDS011;59053;50.832;12.882;2022-08-19T00:41:31;41.63;;;23.67;;
70715;SDS011;59053;50.832;12.882;2022-08-19T00:46:30;41.78;;;23.65;;
70715;SDS011;59053;50.832;12.882;2022-08-19T00:58:09;44.40;;;23.83;;
70715;SDS011;59053;50.832;12.882;2022-08-19T01:00:37;45.95;;;23.65;;
70715;SDS011;59053;50.832;12.882;2022-08-19T01:03:12;45.90;;;25.17;;
70715;SDS011;59053;50.832;12.882;2022-08-19T01:05:39;44.75;;;24.38;;
70715;SDS011;59053;50.832;12.882;2022-08-19T01:10:55;39.35;;;22.65;;
70715;SDS011;59053;50.832;12.882;2022-08-19T01:13:22;39.40;;;22.43;;
70715;SDS011;59053;50.832;12.882;2022-08-19T01:15:52;41.25;;;22.95;;
70715;SDS011;59053;50.832;12.882;2022-08-19T01:18:22;37.40;;;21.08;;
70715;SDS011;59053;50.832;12.882;2022-08-19T01:23:36;37.63;;;21.80;;
70715;SDS011;59053;50.832;12.882;2022-08-19T01:26:16;36.57;;;20.83;;
70715;SDS011;59053;50.832;12.882;2022-08-19T01:28:45;37.50;;;19.95;;
70715;SDS011;59053;50.832;12.882;2022-08-19T01:33:49;32.03;;;19.20;;
70715;SDS011;59053;50.832;12.882;2022-08-19T01:36:22;32.65;;;19.05;;
70715;SDS011;59053;50.832;12.882;2022-08-19T01:41:53;35.00;;;20.08;;
70715;SDS011;59053;50.832;12.882;2022-08-19T01:48:07;36.97;;;20.53;;
70715;SDS011;59053;50.832;12.882;2022-08-19T01:50:32;37.05;;;21.48;;
70715;SDS011;59053;50.832;12.882;2022-08-19T01:52:59;37.75;;;20.80;;
70715;SDS011;59053;50.832;12.882;2022-08-19T01:58:31;40.58;;;22.00;;
70715;SDS011;59053;50.832;12.882;2022-08-19T02:00:58;40.07;;;21.93;;
70715;SDS011;59053;50.832;12.882;2022-08-19T02:06:29;37.78;;;21.35;;
70715;SDS011;59053;50.832;12.882;2022-08-19T02:08:54;38.73;;;22.13;;
70715;SDS011;59053;50.832;12.882;2022-08-19T02:11:32;36.72;;;20.25;;
70715;SDS011;59053;50.832;12.882;2022-08-19T02:14:03;37.55;;;21.55;;
70715;SDS011;59053;50.832;12.882;2022-08-19T02:22:49;42.33;;;22.05;;
70715;SDS011;59053;50.832;12.882;2022-08-19T02:25:15;36.60;;;21.15;;
70715;SDS011;59053;50.832;12.882;2022-08-19T02:30:30;36.35;;;21.13;;
70715;SDS011;59053;50.832;12.882;2022-08-19T02:35:56;34.90;;;19.97;;
70715;SDS011;59053;50.832;12.882;2022-08-19T02:38:24;35.22;;;20.38;;
70715;SDS011;59053;50.832;12.882;2022-08-19T02:40:54;36.22;;;21.88;;
70715;SDS011;59053;50.832;12.882;2022-08-19T02:43:20;34.05;;;20.42;;
70715;SDS011;59053;50.832;12.882;2022-08-19T02:45:46;35.47;;;20.63;;
70715;SDS011;59053;50.832;12.882;2022-08-19T02:48:29;34.07;;;20.73;;
70715;SDS011;59053;50.832;12.882;2022-08-19T02:50:57;38.95;;;20.95;;
70715;SDS011;59053;50.832;12.882;2022-08-19T02:53:25;39.80;;;22.17;;
70715;SDS011;59053;50.832;12.882;2022-08-19T02:55:57;37.35;;;21.25;;
70715;SDS011;59053;50.832;12.882;2022-08-19T02:58:22;38.38;;;22.35;;
70715;SDS011;59053;50.832;12.882;2022-08-19T03:00:50;39.30;;;22.27;;
70715;SDS011;59053;50.832;12.882;2022-08-19T03:03:17;39.67;;;22.02;;
70715;SDS011;59053;50.832;12.882;2022-08-19T03:05:48;38.47;;;21.73;;
70715;SDS011;59053;50.832;12.882;2022-08-19T03:08:15;37.30;;;21.45;;
70715;SDS011;59053;50.832;12.882;2022-08-19T03:13:56;39.50;;;22.20;;
70715;SDS011;59053;50.832;12.882;2022-08-19T03:16:23;39.83;;;22.63;;
70715;SDS011;59053;50.832;12.882;2022-08-19T03:18:50;39.72;;;22.38;;
70715;SDS011;59053;50.832;12.882;2022-08-19T03:21:30;40.38;;;21.40;;
70715;SDS011;59053;50.832;12.882;2022-08-19T03:26:55;35.80;;;20.83;;
70715;SDS011;59053;50.832;12.882;2022-08-19T03:29:30;39.00;;;20.48;;
70715;SDS011;59053;50.832;12.882;2022-08-19T03:32:03;41.83;;;21.83;;
70715;SDS011;59053;50.832;12.882;2022-08-19T03:34:30;43.90;;;22.83;;
70715;SDS011;59053;50.832;12.882;2022-08-19T03:37:02;47.20;;;22.83;;
70715;SDS011;59053;50.832;12.882;2022-08-19T03:39:29;48.07;;;23.23;;
70715;SDS011;59053;50.832;12.882;2022-08-19T03:44:59;51.08;;;23.77;;
70715;SDS011;59053;50.832;12.882;2022-08-19T03:47:26;52.92;;;24.80;;
70715;SDS011;59053;50.832;12.882;2022-08-19T03:53:13;48.77;;;22.67;;
70715;SDS011;59053;50.832;12.882;2022-08-19T03:55:47;53.75;;;24.75;;
70715;SDS011;59053;50.832;12.882;2022-08-19T03:58:12;52.63;;;23.05;;
70715;SDS011;59053;50.832;12.882;2022-08-19T04:00:41;53.47;;;24.27;;
70715;SDS011;59053;50.832;12.882;2022-08-19T04:03:07;49.78;;;23.92;;
70715;SDS011;59053;50.832;12.882;2022-08-19T04:08:56;50.20;;;23.25;;
70715;SDS011;59053;50.832;12.882;2022-08-19T04:28:20;62.45;;;25.30;;
70715;SDS011;59053;50.832;12.882;2022-08-19T04:30:47;65.43;;;25.57;;
70715;SDS011;59053;50.832;12.882;2022-08-19T04:33:23;69.63;;;25.92;;
70715;SDS011;59053;50.832;12.882;2022-08-19T04:39:04;67.50;;;25.77;;
70715;SDS011;59053;50.832;12.882;2022-08-19T04:44:58;69.53;;;24.63;;
70715;SDS011;59053;50.832;12.882;2022-08-19T04:47:24;64.05;;;24.58;;
70715;SDS011;59053;50.832;12.882;2022-08-19T04:49:49;65.20;;;24.93;;
70715;SDS011;59053;50.832;12.882;2022-08-19T04:55:39;72.90;;;25.63;;
70715;SDS011;59053;50.832;12.882;2022-08-19T05:04:05;62.33;;;23.30;;
70715;SDS011;59053;50.832;12.882;2022-08-19T05:06:35;56.00;;;21.70;;
70715;SDS011;59053;50.832;12.882;2022-08-19T05:09:02;59.77;;;22.80;;
70715;SDS011;59053;50.832;12.882;2022-08-19T05:11:30;56.22;;;22.17;;
70715;SDS011;59053;50.832;12.882;2022-08-19T05:14:30;57.72;;;21.55;;
70715;SDS011;59053;50.832;12.882;2022-08-19T05:16:55;56.95;;;21.40;;
70715;SDS011;59053;50.832;12.882;2022-08-19T05:19:21;52.57;;;20.93;;
70715;SDS011;59053;50.832;12.882;2022-08-19T05:22:04;51.72;;;21.25;;
70715;SDS011;59053;50.832;12.882;2022-08-19T05:36:58;44.60;;;20.15;;
70715;SDS011;59053;50.832;12.882;2022-08-19T05:39:31;39.40;;;18.55;;
70715;SDS011;59053;50.832;12.882;2022-08-19T05:41:58;36.77;;;18.07;;
70715;SDS011;59053;50.832;12.882;2022-08-19T05:44:31;35.95;;;17.42;;
70715;SDS011;59053;50.832;12.882;2022-08-19T05:50:17;44.72;;;19.60;;
70715;SDS011;59053;50.832;12.882;2022-08-19T05:52:59;43.33;;;19.97;;
70715;SDS011;59053;50.832;12.882;2022-08-19T05:59:29;43.78;;;18.83;;
70715;SDS011;59053;50.832;12.882;2022-08-19T06:02:03;41.53;;;18.87;;
70715;SDS011;59053;50.832;12.882;2022-08-19T06:04:29;40.13;;;19.30;;
70715;SDS011;59053;50.832;12.882;2022-08-19T06:09:55;45.80;;;20.40;;
70715;SDS011;59053;50.832;12.882;2022-08-19T06:12:20;46.08;;;20.25;;
70715;SDS011;59053;50.832;12.882;2022-08-19T06:15:08;44.65;;;20.13;;
70715;SDS011;59053;50.832;12.882;2022-08-19T06:17:35;42.97;;;20.17;;
70715;SDS011;59053;50.832;12.882;2022-08-19T06:34:53;42.28;;;19.13;;
70715;SDS011;59053;50.832;12.882;2022-08-19T06:37:18;39.17;;;19.30;;
70715;SDS011;59053;50.832;12.882;2022-08-19T06:39:46;44.08;;;19.92;;
70715;SDS011;59053;50.832;12.882;2022-08-19T07:08:49;43.00;;;19.13;;
70715;SDS011;59053;50.832;12.882;2022-08-19T07:11:30;42.92;;;19.65;;
70715;SDS011;59053;50.832;12.882;2022-08-19T07:20:27;34.83;;;17.45;;
70715;SDS011;59053;50.832;12.882;2022-08-19T07:22:53;33.70;;;16.33;;
70715;SDS011;59053;50.832;12.882;2022-08-19T07:25:30;35.83;;;16.95;;
70715;SDS011;59053;50.832;12.882;2022-08-19T07:27:56;37.53;;;17.50;;
70715;SDS011;59053;50.832;12.882;2022-08-19T07:30:21;34.93;;;16.47;;
70715;SDS011;59053;50.832;12.882;2022-08-19T07:39:26;43.17;;;19.50;;
70715;SDS011;59053;50.832;12.882;2022-08-19T07:41:55;55.58;;;22.83;;
70715;SDS011;59053;50.832;12.882;2022-08-19T07:47:06;56.40;;;21.97;;
70715;SDS011;59053;50.832;12.882;2022-08-19T07:49:32;71.05;;;26.27;;
70715;SDS011;59053;50.832;12.882;2022-08-19T07:51:59;59.47;;;24.17;;
70715;SDS011;59053;50.832;12.882;2022-08-19T07:54:27;59.88;;;24.58;;
70715;SDS011;59053;50.832;12.882;2022-08-19T07:56:53;56.72;;;24.05;;
70715;SDS011;59053;50.832;12.882;2022-08-19T07:59:20;51.57;;;23.40;;
70715;SDS011;59053;50.832;12.882;2022-08-19T08:01:46;51.05;;;23.63;;
70715;SDS011;59053;50.832;12.882;2022-08-19T08:04:17;50.17;;;23.42;;
70715;SDS011;59053;50.832;12.882;2022-08-19T08:07:01;43.30;;;21.30;;
70715;SDS011;59053;50.832;12.882;2022-08-19T08:09:46;48.20;;;22.33;;
70715;SDS011;59053;50.832;12.882;2022-08-19T08:12:17;36.45;;;20.10;;
70715;SDS011;59053;50.832;12.882;2022-08-19T08:14:50;35.60;;;18.70;;
70715;SDS011;59053;50.832;12.882;2022-08-19T08:17:19;33.53;;;19.35;;
70715;SDS011;59053;50.832;12.882;2022-08-19T08:19:46;33.85;;;18.42;;
70715;SDS011;59053;50.832;12.882;2022-08-19T08:22:14;34.55;;;18.90;;
70715;SDS011;59053;50.832;12.882;2022-08-19T08:25:09;34.25;;;19.48;;
70715;SDS011;59053;50.832;12.882;2022-08-19T08:27:38;36.90;;;19.50;;
70715;SDS011;59053;50.832;12.882;2022-08-19T08:30:08;34.97;;;19.02;;
70715;SDS011;59053;50.832;12.882;2022-08-19T08:32:52;34.13;;;19.85;;
70715;SDS011;59053;50.832;12.882;2022-08-19T08:35:28;33.08;;;19.35;;
70715;SDS011;59053;50.832;12.882;2022-08-19T08:43:59;36.63;;;18.73;;
70715;SDS011;59053;50.832;12.882;2022-08-19T08:46:34;35.08;;;20.42;;
70715;SDS011;59053;50.832;12.882;2022-08-19T08:52:13;38.30;;;21.27;;
70715;SDS011;59053;50.832;12.882;2022-08-19T08:54:53;39.83;;;21.77;;
70715;SDS011;59053;50.832;12.882;2022-08-19T09:00:27;42.33;;;23.40;;
70715;SDS011;59053;50.832;12.882;2022-08-19T09:17:16;54.97;;;26.75;;
70715;SDS011;59053;50.832;12.882;2022-08-19T09:23:30;56.63;;;26.57;;
70715;SDS011;59053;50.832;12.882;2022-08-19T09:25:56;53.72;;;26.13;;
70715;SDS011;59053;50.832;12.882;2022-08-19T09:33:58;45.97;;;24.85;;
70715;SDS011;59053;50.832;12.882;2022-08-19T09:36:30;48.65;;;25.05;;
70715;SDS011;59053;50.832;12.882;2022-08-19T09:38:59;42.28;;;23.23;;
70715;SDS011;59053;50.832;12.882;2022-08-19T09:41:25;38.90;;;20.53;;
70715;SDS011;59053;50.832;12.882;2022-08-19T09:43:52;41.78;;;22.58;;
70715;SDS011;59053;50.832;12.882;2022-08-19T09:49:06;37.90;;;21.30;;
70715;SDS011;59053;50.832;12.882;2022-08-19T09:54:43;32.00;;;18.90;;
70715;SDS011;59053;50.832;12.882;2022-08-19T09:57:08;33.33;;;18.73;;
70715;SDS011;59053;50.832;12.882;2022-08-19T09:59:34;39.67;;;21.60;;
70715;SDS011;59053;50.832;12.882;2022-08-19T10:02:02;37.20;;;20.60;;
70715;SDS011;59053;50.832;12.882;2022-08-19T10:04:28;36.00;;;20.50;;
70715;SDS011;59053;50.832;12.882;2022-08-19T10:07:13;39.92;;;20.27;;
70715;SDS011;59053;50.832;12.882;2022-08-19T10:09:42;40.70;;;21.40;;
70715;SDS011;59053;50.832;12.882;2022-08-19T10:12:08;38.03;;;20.42;;
70715;SDS011;59053;50.832;12.882;2022-08-19T10:14:48;37.93;;;20.63;;
70715;SDS011;59053;50.832;12.882;2022-08-19T10:17:16;39.80;;;21.85;;
70715;SDS011;59053;50.832;12.882;2022-08-19T10:22:27;44.20;;;23.13;;
70715;SDS011;59053;50.832;12.882;2022-08-19T10:25:11;46.30;;;22.70;;
70715;SDS011;59053;50.832;12.882;2022-08-19T10:27:48;49.05;;;24.42;;
70715;SDS011;59053;50.832;12.882;2022-08-19T10:30:13;56.35;;;27.73;;
70715;SDS011;59053;50.832;12.882;2022-08-19T10:32:39;56.50;;;26.40;;
70715;SDS011;59053;50.832;12.882;2022-08-19T10:35:05;63.70;;;28.42;;
70715;SDS011;59053;50.832;12.882;2022-08-19T10:40:42;65.00;;;27.87;;
70715;SDS011;59053;50.832;12.882;2022-08-19T10:43:10;63.83;;;28.58;;
70715;SDS011;59053;50.832;12.882;2022-08-19T10:45:36;63.70;;;27.13;;
70715;SDS011;59053;50.832;12.882;2022-08-19T10:48:02;59.85;;;27.50;;
70715;SDS011;59053;50.832;12.882;2022-08-19T10:50:27;57.15;;;25.45;;
70715;SDS011;59053;50.832;12.882;2022-08-19T10:53:14;56.97;;;25.77;;
70715;SDS011;59053;50.832;12.882;2022-08-19T10:55:40;50.22;;;23.67;;
70715;SDS011;59053;50.832;12.882;2022-08-19T10:58:26;41.15;;;21.80;;
70715;SDS011;59053;50.832;12.882;2022-08-19T11:03:57;37.83;;;20.98;;
70715;SDS011;59053;50.832;12.882;2022-08-19T11:06:23;42.73;;;22.80;;
70715;SDS011;59053;50.832;12.882;2022-08-19T11:08:52;47.97;;;24.73;;
70715;SDS011;59053;50.832;12.882;2022-08-19T11:14:22;51.93;;;25.47;;
70715;SDS011;59053;50.832;12.882;2022-08-19T11:17:07;54.05;;;23.55;;
70715;SDS011;59053;50.832;12.882;2022-08-19T11:19:33;57.10;;;27.73;;
70715;SDS011;59053;50.832;12.882;2022-08-19T11:21:59;66.30;;;31.67;;
70715;SDS011;59053;50.832;12.882;2022-08-19T11:24:26;71.15;;;29.48;;
70715;SDS011;59053;50.832;12.882;2022-08-19T11:35:47;70.88;;;31.00;;
70715;SDS011;59053;50.832;12.882;2022-08-19T11:38:18;71.95;;;30.73;;
70715;SDS011;59053;50.832;12.882;2022-08-19T11:40:54;65.70;;;28.03;;
70715;SDS011;59053;50.832;12.882;2022-08-19T11:43:37;66.78;;;29.05;;
70715;SDS011;59053;50.832;12.882;2022-08-19T11:46:08;66.40;;;30.15;;
70715;SDS011;59053;50.832;12.882;2022-08-19T11:48:41;64.10;;;27.48;;
70715;SDS011;59053;50.832;12.882;2022-08-19T11:51:08;50.40;;;22.38;;
70715;SDS011;59053;50.832;12.882;2022-08-19T11:56:29;62.13;;;27.05;;
70715;SDS011;59053;50.832;12.882;2022-08-19T12:02:24;67.40;;;30.73;;
70715;SDS011;59053;50.832;12.882;2022-08-19T12:07:46;67.22;;;30.15;;
70715;SDS011;59053;50.832;12.882;2022-08-19T12:10:12;75.15;;;31.70;;
70715;SDS011;59053;50.832;12.882;2022-08-19T12:12:37;70.17;;;29.23;;
70715;SDS011;59053;50.832;12.882;2022-08-19T12:15:15;73.47;;;33.75;;
70715;SDS011;59053;50.832;12.882;2022-08-19T12:21:28;77.63;;;32.88;;
70715;SDS011;59053;50.832;12.882;2022-08-19T12:24:10;82.63;;;33.35;;
70715;SDS011;59053;50.832;12.882;2022-08-19T12:29:26;84.38;;;33.50;;
70715;SDS011;59053;50.832;12.882;2022-08-19T12:34:32;79.25;;;33.50;;
70715;SDS011;59053;50.832;12.882;2022-08-19T12:37:05;75.28;;;30.05;;
70715;SDS011;59053;50.832;12.882;2022-08-19T12:39:38;82.37;;;33.10;;
70715;SDS011;59053;50.832;12.882;2022-08-19T12:42:06;89.85;;;36.03;;
70715;SDS011;59053;50.832;12.882;2022-08-19T12:44:33;86.25;;;34.90;;
70715;SDS011;59053;50.832;12.882;2022-08-19T12:46:58;83.10;;;35.47;;
70715;SDS011;59053;50.832;12.882;2022-08-19T12:49:24;89.55;;;35.58;;
70715;SDS011;59053;50.832;12.882;2022-08-19T12:54:35;83.97;;;34.78;;
70715;SDS011;59053;50.832;12.882;2022-08-19T12:59:31;84.70;;;35.13;;
70715;SDS011;59053;50.832;12.882;2022-08-19T13:01:56;76.73;;;32.77;;
70715;SDS011;59053;50.832;12.882;2022-08-19T13:04:29;80.13;;;33.70;;
70715;SDS011;59053;50.832;12.882;2022-08-19T13:09:45;75.13;;;32.58;;
70715;SDS011;59053;50.832;12.882;2022-08-19T13:12:10;66.37;;;27.57;;
70715;SDS011;59053;50.832;12.882;2022-08-19T13:14:38;72.18;;;31.17;;
70715;SDS011;59053;50.832;12.882;2022-08-19T13:17:17;68.88;;;32.25;;
70715;SDS011;59053;50.832;12.882;2022-08-19T13:19:55;70.15;;;31.50;;
70715;SDS011;59053;50.832;12.882;2022-08-19T13:22:22;68.57;;;32.22;;
70715;SDS011;59053;50.832;12.882;2022-08-19T13:24:48;63.63;;;31.07;;
70715;SDS011;59053;50.832;12.882;2022-08-19T13:27:14;60.78;;;29.90;;
70715;SDS011;59053;50.832;12.882;2022-08-19T13:29:40;62.83;;;28.67;;
70715;SDS011;59053;50.832;12.882;2022-08-19T13:32:28;61.33;;;29.60;;
70715;SDS011;59053;50.832;12.882;2022-08-19T13:35:23;64.50;;;29.83;;
70715;SDS011;59053;50.832;12.882;2022-08-19T13:37:56;64.75;;;30.50;;
70715;SDS011;59053;50.832;12.882;2022-08-19T13:40:31;65.80;;;29.70;;
70715;SDS011;59053;50.832;12.882;2022-08-19T13:43:05;62.55;;;29.65;;
70715;SDS011;59053;50.832;12.882;2022-08-19T13:45:32;67.63;;;31.80;;
70715;SDS011;59053;50.832;12.882;2022-08-19T13:47:59;68.23;;;31.13;;
70715;SDS011;59053;50.832;12.882;2022-08-19T13:51:01;64.57;;;30.45;;
70715;SDS011;59053;50.832;12.882;2022-08-19T13:53:30;67.18;;;30.75;;
70715;SDS011;59053;50.832;12.882;2022-08-19T13:55:55;66.63;;;31.70;;
70715;SDS011;59053;50.832;12.882;2022-08-19T13:58:21;70.13;;;31.90;;
70715;SDS011;59053;50.832;12.882;2022-08-19T14:00:47;64.18;;;30.55;;
70715;SDS011;59053;50.832;12.882;2022-08-19T14:03:13;73.10;;;32.67;;
70715;SDS011;59053;50.832;12.882;2022-08-19T14:08:20;64.93;;;30.15;;
70715;SDS011;59053;50.832;12.882;2022-08-19T14:13:41;62.15;;;29.30;;
70715;SDS011;59053;50.832;12.882;2022-08-19T14:16:08;66.07;;;31.43;;
70715;SDS011;59053;50.832;12.882;2022-08-19T14:18:35;67.18;;;30.73;;
70715;SDS011;59053;50.832;12.882;2022-08-19T14:21:04;61.40;;;30.27;;
70715;SDS011;59053;50.832;12.882;2022-08-19T14:23:46;65.17;;;30.90;;
70715;SDS011;59053;50.832;12.882;2022-08-19T14:26:29;59.80;;;28.65;;
70715;SDS011;59053;50.832;12.882;2022-08-19T14:28:54;57.72;;;29.05;;
70715;SDS011;59053;50.832;12.882;2022-08-19T14:34:40;60.77;;;30.07;;
70715;SDS011;59053;50.832;12.882;2022-08-19T14:37:05;59.30;;;27.63;;
70715;SDS011;59053;50.832;12.882;2022-08-19T14:42:22;59.42;;;26.15;;
70715;SDS011;59053;50.832;12.882;2022-08-19T14:44:48;57.07;;;27.87;;
70715;SDS011;59053;50.832;12.882;2022-08-19T14:49:58;58.70;;;28.02;;
70715;SDS011;59053;50.832;12.882;2022-08-19T14:52:23;54.43;;;26.90;;
70715;SDS011;59053;50.832;12.882;2022-08-19T14:54:55;55.63;;;27.75;;
70715;SDS011;59053;50.832;12.882;2022-08-19T14:57:20;59.97;;;28.27;;
70715;SDS011;59053;50.832;12.882;2022-08-19T14:59:45;57.38;;;27.90;;
70715;SDS011;59053;50.832;12.882;2022-08-19T15:02:11;56.87;;;27.43;;
70715;SDS011;59053;50.832;12.882;2022-08-19T15:04:55;51.90;;;27.73;;
70715;SDS011;59053;50.832;12.882;2022-08-19T15:07:21;56.40;;;27.43;;
70715;SDS011;59053;50.832;12.882;2022-08-19T15:09:53;53.75;;;27.58;;
70715;SDS011;59053;50.832;12.882;2022-08-19T15:12:18;52.80;;;27.75;;
70715;SDS011;59053;50.832;12.882;2022-08-19T15:17:55;54.17;;;27.02;;
70715;SDS011;59053;50.832;12.882;2022-08-19T15:20:29;49.37;;;24.33;;
70715;SDS011;59053;50.832;12.882;2022-08-19T15:22:55;47.10;;;25.88;;
70715;SDS011;59053;50.832;12.882;2022-08-19T15:25:31;52.80;;;27.45;;
70715;SDS011;59053;50.832;12.882;2022-08-19T15:27:58;49.90;;;26.67;;
70715;SDS011;59053;50.832;12.882;2022-08-19T15:30:25;51.70;;;26.23;;
70715;SDS011;59053;50.832;12.882;2022-08-19T15:32:53;50.40;;;26.23;;
70715;SDS011;59053;50.832;12.882;2022-08-19T15:35:20;48.50;;;26.05;;
70715;SDS011;59053;50.832;12.882;2022-08-19T15:37:48;50.13;;;26.42;;
70715;SDS011;59053;50.832;12.882;2022-08-19T15:40:14;53.00;;;28.05;;
70715;SDS011;59053;50.832;12.882;2022-08-19T15:42:40;53.43;;;26.57;;
70715;SDS011;59053;50.832;12.882;2022-08-19T15:48:00;51.13;;;24.97;;
70715;SDS011;59053;50.832;12.882;2022-08-19T15:50:27;47.17;;;24.27;;
70715;SDS011;59053;50.832;12.882;2022-08-19T15:52:54;46.85;;;24.33;;
70715;SDS011;59053;50.832;12.882;2022-08-19T15:55:22;50.50;;;24.37;;
70715;SDS011;59053;50.832;12.882;2022-08-19T15:57:51;47.83;;;25.27;;
70715;SDS011;59053;50.832;12.882;2022-08-19T16:00:35;49.33;;;23.55;;
70715;SDS011;59053;50.832;12.882;2022-08-19T16:03:32;49.40;;;23.00;;
70715;SDS011;59053;50.832;12.882;2022-08-19T16:09:44;46.90;;;23.50;;
70715;SDS011;59053;50.832;12.882;2022-08-19T16:12:09;45.25;;;22.67;;
70715;SDS011;59053;50.832;12.882;2022-08-19T16:14:35;46.07;;;23.10;;
70715;SDS011;59053;50.832;12.882;2022-08-19T16:17:02;45.25;;;21.77;;
70715;SDS011;59053;50.832;12.882;2022-08-19T16:19:28;48.67;;;23.00;;
70715;SDS011;59053;50.832;12.882;2022-08-19T16:30:56;45.83;;;22.45;;
70715;SDS011;59053;50.832;12.882;2022-08-19T16:33:21;47.07;;;21.57;;
70715;SDS011;59053;50.832;12.882;2022-08-19T16:38:31;45.78;;;22.05;;
70715;SDS011;59053;50.832;12.882;2022-08-19T16:40:56;45.50;;;19.57;;
70715;SDS011;59053;50.832;12.882;2022-08-19T16:43:24;41.35;;;20.67;;
70715;SDS011;59053;50.832;12.882;2022-08-19T16:45:51;39.22;;;19.80;;
70715;SDS011;59053;50.832;12.882;2022-08-19T16:48:18;39.10;;;20.25;;
70715;SDS011;59053;50.832;12.882;2022-08-19T16:50:44;39.97;;;19.67;;
70715;SDS011;59053;50.832;12.882;2022-08-19T16:53:12;39.63;;;20.70;;
70715;SDS011;59053;50.832;12.882;2022-08-19T16:58:40;38.60;;;19.23;;
70715;SDS011;59053;50.832;12.882;2022-08-19T17:01:07;40.67;;;19.45;;
70715;SDS011;59053;50.832;12.882;2022-08-19T17:03:34;39.22;;;19.02;;
70715;SDS011;59053;50.832;12.882;2022-08-19T17:06:01;38.90;;;18.87;;
70715;SDS011;59053;50.832;12.882;2022-08-19T17:08:29;43.00;;;18.55;;
70715;SDS011;59053;50.832;12.882;2022-08-19T17:10:56;38.20;;;18.65;;
70715;SDS011;59053;50.832;12.882;2022-08-19T17:13:26;39.55;;;19.55;;
70715;SDS011;59053;50.832;12.882;2022-08-19T17:16:00;37.95;;;19.13;;
70715;SDS011;59053;50.832;12.882;2022-08-19T17:18:32;38.17;;;19.30;;
70715;SDS011;59053;50.832;12.882;2022-08-19T17:27:19;41.08;;;20.23;;
70715;SDS011;59053;50.832;12.882;2022-08-19T17:29:44;43.47;;;21.33;;
70715;SDS011;59053;50.832;12.882;2022-08-19T17:32:19;38.57;;;20.10;;
70715;SDS011;59053;50.832;12.882;2022-08-19T17:34:44;40.40;;;20.80;;
70715;SDS011;59053;50.832;12.882;2022-08-19T17:43:04;39.17;;;20.13;;
70715;SDS011;59053;50.832;12.882;2022-08-19T17:48:56;42.93;;;20.03;;
70715;SDS011;59053;50.832;12.882;2022-08-19T17:51:41;30.50;;;17.17;;
70715;SDS011;59053;50.832;12.882;2022-08-19T17:54:13;28.55;;;14.18;;
70715;SDS011;59053;50.832;12.882;2022-08-19T17:56:40;26.05;;;14.57;;
70715;SDS011;59053;50.832;12.882;2022-08-19T18:02:31;27.48;;;14.80;;
70715;SDS011;59053;50.832;12.882;2022-08-19T18:08:01;30.95;;;14.60;;
70715;SDS011;59053;50.832;12.882;2022-08-19T18:10:29;25.30;;;14.10;;
70715;SDS011;59053;50.832;12.882;2022-08-19T18:13:11;24.23;;;13.30;;
70715;SDS011;59053;50.832;12.882;2022-08-19T18:15:37;20.77;;;11.93;;
70715;SDS011;59053;50.832;12.882;2022-08-19T18:18:02;22.07;;;12.33;;
70715;SDS011;59053;50.832;12.882;2022-08-19T18:24:15;19.70;;;11.70;;
70715;SDS011;59053;50.832;12.882;2022-08-19T18:30:12;18.97;;;11.03;;
70715;SDS011;59053;50.832;12.882;2022-08-19T18:32:39;19.80;;;10.98;;
70715;SDS011;59053;50.832;12.882;2022-08-19T18:35:23;18.85;;;11.00;;
70715;SDS011;59053;50.832;12.882;2022-08-19T18:37:54;18.70;;;11.18;;
70715;SDS011;59053;50.832;12.882;2022-08-19T18:40:21;20.42;;;11.57;;
70715;SDS011;59053;50.832;12.882;2022-08-19T18:43:06;20.70;;;11.60;;
70715;SDS011;59053;50.832;12.882;2022-08-19T18:45:54;20.27;;;11.18;;
70715;SDS011;59053;50.832;12.882;2022-08-19T18:51:56;19.42;;;10.45;;
70715;SDS011;59053;50.832;12.882;2022-08-19T18:54:22;20.27;;;11.20;;
70715;SDS011;59053;50.832;12.882;2022-08-19T18:56:49;18.50;;;10.90;;
70715;SDS011;59053;50.832;12.882;2022-08-19T18:59:20;19.45;;;11.65;;
70715;SDS011;59053;50.832;12.882;2022-08-19T19:01:49;20.90;;;11.52;;
70715;SDS011;59053;50.832;12.882;2022-08-19T19:04:31;19.40;;;11.30;;
70715;SDS011;59053;50.832;12.882;2022-08-19T19:07:03;18.88;;;11.82;;
70715;SDS011;59053;50.832;12.882;2022-08-19T19:09:29;19.83;;;11.40;;
70715;SDS011;59053;50.832;12.882;2022-08-19T19:11:57;19.40;;;10.70;;
70715;SDS011;59053;50.832;12.882;2022-08-19T19:14:31;18.70;;;11.48;;
70715;SDS011;59053;50.832;12.882;2022-08-19T19:16:59;21.13;;;11.03;;
70715;SDS011;59053;50.832;12.882;2022-08-19T19:19:26;19.55;;;11.57;;
70715;SDS011;59053;50.832;12.882;2022-08-19T19:21:52;21.10;;;11.77;;
70715;SDS011;59053;50.832;12.882;2022-08-19T19:24:31;20.23;;;11.87;;
70715;SDS011;59053;50.832;12.882;2022-08-19T19:26:58;20.33;;;11.73;;
70715;SDS011;59053;50.832;12.882;2022-08-19T19:29:29;20.23;;;10.98;;
70715;SDS011;59053;50.832;12.882;2022-08-19T19:31:54;20.20;;;11.40;;
70715;SDS011;59053;50.832;12.882;2022-08-19T19:34:20;20.37;;;11.13;;
70715;SDS011;59053;50.832;12.882;2022-08-19T19:36:54;20.73;;;11.15;;
70715;SDS011;59053;50.832;12.882;2022-08-19T19:46:54;19.67;;;11.30;;
70715;SDS011;59053;50.832;12.882;2022-08-19T19:49:36;19.90;;;11.77;;
70715;SDS011;59053;50.832;12.882;2022-08-19T19:52:05;22.52;;;11.25;;
70715;SDS011;59053;50.832;12.882;2022-08-19T19:54:48;20.23;;;11.32;;
70715;SDS011;59053;50.832;12.882;2022-08-19T19:57:27;20.13;;;11.15;;
70715;SDS011;59053;50.832;12.882;2022-08-19T19:59:54;18.83;;;10.70;;
70715;SDS011;59053;50.832;12.882;2022-08-19T20:02:20;22.90;;;10.93;;
70715;SDS011;59053;50.832;12.882;2022-08-19T20:16:50;23.80;;;12.57;;
70715;SDS011;59053;50.832;12.882;2022-08-19T20:22:10;23.20;;;12.23;;
70715;SDS011;59053;50.832;12.882;2022-08-19T20:24:54;20.83;;;11.87;;
70715;SDS011;59053;50.832;12.882;2022-08-19T20:27:19;22.25;;;11.77;;
70715;SDS011;59053;50.832;12.882;2022-08-19T20:36:49;18.30;;;10.70;;
70715;SDS011;59053;50.832;12.882;2022-08-19T20:42:31;21.85;;;12.90;;
70715;SDS011;59053;50.832;12.882;2022-08-19T20:45:35;22.65;;;13.05;;
70715;SDS011;59053;50.832;12.882;2022-08-19T20:48:08;22.95;;;12.77;;
70715;SDS011;59053;50.832;12.882;2022-08-19T20:54:07;21.00;;;12.70;;